sensor_id;sensor_type;location;lat;lon;timestamp;P1;durP1;ratioP1;P2;durP2;ratioP2
19599;SDS011;9947;57.722;12.012;2022-08-19T00:01:35;38.13;;;16.47;;
19599;SDS011;9947;57.722;12.012;2022-08-19T00:04:05;32.10;;;15.87;;
19599;SDS011;9947;57.722;12.012;2022-08-19T00:06:34;32.97;;;15.60;;
19599;SDS011;9947;57.722;12.012;2022-08-19T00:09:03;32.63;;;14.83;;
19599;SDS011;9947;57.722;12.012;2022-08-19T00:11:31;25.73;;;15.37;;
19599;SDS011;9947;57.722;12.012;2022-08-19T00:13:59;26.67;;;15.30;;
19599;SDS011;9947;57.722;12.012;2022-08-19T00:16:26;26.30;;;14.37;;
19599;SDS011;9947;57.722;12.012;2022-08-19T00:18:54;25.60;;;14.00;;
19599;SDS011;9947;57.722;12.012;2022-08-19T00:21:21;31.00;;;15.87;;
19599;SDS011;9947;57.722;12.012;2022-08-19T00:23:49;30.03;;;15.40;;
19599;SDS011;9947;57.722;12.012;2022-08-19T00:26:15;31.03;;;15.57;;
19599;SDS011;9947;57.722;12.012;2022-08-19T00:28:42;27.03;;;15.07;;
19599;SDS011;9947;57.722;12.012;2022-08-19T00:31:09;29.83;;;15.23;;
19599;SDS011;9947;57.722;12.012;2022-08-19T00:33:36;36.57;;;16.67;;
19599;SDS011;9947;57.722;12.012;2022-08-19T00:36:06;35.50;;;18.13;;
19599;SDS011;9947;57.722;12.012;2022-08-19T00:38:35;31.97;;;18.27;;
19599;SDS011;9947;57.722;12.012;2022-08-19T00:41:08;35.80;;;17.83;;
19599;SDS011;9947;57.722;12.012;2022-08-19T00:43:35;35.10;;;16.03;;
19599;SDS011;9947;57.722;12.012;2022-08-19T00:46:05;39.77;;;18.27;;
19599;SDS011;9947;57.722;12.012;2022-08-19T00:48:32;35.40;;;16.90;;
19599;SDS011;9947;57.722;12.012;2022-08-19T00:51:01;30.20;;;17.40;;
19599;SDS011;9947;57.722;12.012;2022-08-19T00:53:29;35.03;;;18.83;;
19599;SDS011;9947;57.722;12.012;2022-08-19T00:55:59;43.13;;;21.67;;
19599;SDS011;9947;57.722;12.012;2022-08-19T00:58:29;37.33;;;19.10;;
19599;SDS011;9947;57.722;12.012;2022-08-19T01:00:58;34.63;;;19.40;;
19599;SDS011;9947;57.722;12.012;2022-08-19T01:03:25;34.73;;;19.10;;
19599;SDS011;9947;57.722;12.012;2022-08-19T01:05:52;35.27;;;18.97;;
19599;SDS011;9947;57.722;12.012;2022-08-19T01:08:22;37.13;;;19.57;;
19599;SDS011;9947;57.722;12.012;2022-08-19T01:10:52;31.37;;;17.10;;
19599;SDS011;9947;57.722;12.012;2022-08-19T01:13:21;37.93;;;19.13;;
19599;SDS011;9947;57.722;12.012;2022-08-19T01:15:52;38.00;;;18.93;;
19599;SDS011;9947;57.722;12.012;2022-08-19T01:18:22;35.30;;;18.53;;
19599;SDS011;9947;57.722;12.012;2022-08-19T01:20:51;40.97;;;20.63;;
19599;SDS011;9947;57.722;12.012;2022-08-19T01:23:24;40.30;;;20.43;;
19599;SDS011;9947;57.722;12.012;2022-08-19T01:26:07;32.20;;;18.40;;
19599;SDS011;9947;57.722;12.012;2022-08-19T01:28:36;35.37;;;18.20;;
19599;SDS011;9947;57.722;12.012;2022-08-19T01:31:03;34.13;;;18.93;;
19599;SDS011;9947;57.722;12.012;2022-08-19T01:33:30;32.90;;;18.17;;
19599;SDS011;9947;57.722;12.012;2022-08-19T01:36:02;34.40;;;19.60;;
19599;SDS011;9947;57.722;12.012;2022-08-19T01:38:34;39.67;;;20.13;;
19599;SDS011;9947;57.722;12.012;2022-08-19T01:41:04;43.50;;;20.67;;
19599;SDS011;9947;57.722;12.012;2022-08-19T01:43:31;40.77;;;20.80;;
19599;SDS011;9947;57.722;12.012;2022-08-19T01:45:58;38.23;;;19.53;;
19599;SDS011;9947;57.722;12.012;2022-08-19T01:48:25;39.37;;;20.30;;
19599;SDS011;9947;57.722;12.012;2022-08-19T01:50:54;39.93;;;20.87;;
19599;SDS011;9947;57.722;12.012;2022-08-19T01:53:21;40.77;;;20.07;;
19599;SDS011;9947;57.722;12.012;2022-08-19T01:55:49;40.33;;;20.43;;
19599;SDS011;9947;57.722;12.012;2022-08-19T01:58:17;36.20;;;20.00;;
19599;SDS011;9947;57.722;12.012;2022-08-19T02:00:47;38.07;;;20.03;;
19599;SDS011;9947;57.722;12.012;2022-08-19T02:03:14;37.77;;;20.50;;
19599;SDS011;9947;57.722;12.012;2022-08-19T02:05:42;39.87;;;19.27;;
19599;SDS011;9947;57.722;12.012;2022-08-19T02:08:10;39.97;;;20.10;;
19599;SDS011;9947;57.722;12.012;2022-08-19T02:10:39;35.80;;;18.80;;
19599;SDS011;9947;57.722;12.012;2022-08-19T02:13:08;35.47;;;18.50;;
19599;SDS011;9947;57.722;12.012;2022-08-19T02:15:36;35.00;;;19.50;;
19599;SDS011;9947;57.722;12.012;2022-08-19T02:18:04;36.60;;;19.30;;
19599;SDS011;9947;57.722;12.012;2022-08-19T02:20:32;39.80;;;19.47;;
19599;SDS011;9947;57.722;12.012;2022-08-19T02:22:59;41.10;;;19.37;;
19599;SDS011;9947;57.722;12.012;2022-08-19T02:25:26;36.20;;;17.77;;
19599;SDS011;9947;57.722;12.012;2022-08-19T02:27:53;36.63;;;19.97;;
19599;SDS011;9947;57.722;12.012;2022-08-19T02:30:24;34.70;;;19.33;;
19599;SDS011;9947;57.722;12.012;2022-08-19T02:32:51;36.47;;;19.97;;
19599;SDS011;9947;57.722;12.012;2022-08-19T02:35:18;34.13;;;18.63;;
19599;SDS011;9947;57.722;12.012;2022-08-19T02:37:46;34.37;;;18.67;;
19599;SDS011;9947;57.722;12.012;2022-08-19T02:40:31;34.07;;;18.37;;
19599;SDS011;9947;57.722;12.012;2022-08-19T02:42:59;38.43;;;18.70;;
19599;SDS011;9947;57.722;12.012;2022-08-19T02:45:30;38.77;;;19.53;;
19599;SDS011;9947;57.722;12.012;2022-08-19T02:47:59;35.10;;;17.17;;
19599;SDS011;9947;57.722;12.012;2022-08-19T02:50:26;38.87;;;17.60;;
19599;SDS011;9947;57.722;12.012;2022-08-19T02:52:52;32.60;;;15.40;;
19599;SDS011;9947;57.722;12.012;2022-08-19T02:55:19;32.07;;;16.30;;
19599;SDS011;9947;57.722;12.012;2022-08-19T02:57:46;30.33;;;14.90;;
19599;SDS011;9947;57.722;12.012;2022-08-19T03:00:14;26.07;;;14.50;;
19599;SDS011;9947;57.722;12.012;2022-08-19T03:02:43;27.70;;;13.53;;
19599;SDS011;9947;57.722;12.012;2022-08-19T03:05:11;30.90;;;13.80;;
19599;SDS011;9947;57.722;12.012;2022-08-19T03:07:38;31.80;;;14.47;;
19599;SDS011;9947;57.722;12.012;2022-08-19T03:10:05;26.87;;;13.43;;
19599;SDS011;9947;57.722;12.012;2022-08-19T03:12:35;25.20;;;13.10;;
19599;SDS011;9947;57.722;12.012;2022-08-19T03:15:03;24.30;;;12.37;;
19599;SDS011;9947;57.722;12.012;2022-08-19T03:17:31;28.87;;;13.07;;
19599;SDS011;9947;57.722;12.012;2022-08-19T03:19:59;30.93;;;14.50;;
19599;SDS011;9947;57.722;12.012;2022-08-19T03:22:27;37.97;;;15.03;;
19599;SDS011;9947;57.722;12.012;2022-08-19T03:24:55;27.57;;;14.00;;
19599;SDS011;9947;57.722;12.012;2022-08-19T03:27:22;33.20;;;14.67;;
19599;SDS011;9947;57.722;12.012;2022-08-19T03:29:49;31.57;;;14.73;;
19599;SDS011;9947;57.722;12.012;2022-08-19T03:32:16;33.93;;;15.60;;
19599;SDS011;9947;57.722;12.012;2022-08-19T03:34:43;35.47;;;16.97;;
19599;SDS011;9947;57.722;12.012;2022-08-19T03:37:11;36.27;;;17.03;;
19599;SDS011;9947;57.722;12.012;2022-08-19T03:39:38;32.00;;;16.80;;
19599;SDS011;9947;57.722;12.012;2022-08-19T03:42:06;38.27;;;16.70;;
19599;SDS011;9947;57.722;12.012;2022-08-19T03:44:33;34.90;;;17.47;;
19599;SDS011;9947;57.722;12.012;2022-08-19T03:47:01;35.57;;;18.83;;
19599;SDS011;9947;57.722;12.012;2022-08-19T03:49:29;36.70;;;16.63;;
19599;SDS011;9947;57.722;12.012;2022-08-19T03:51:58;36.43;;;17.77;;
19599;SDS011;9947;57.722;12.012;2022-08-19T03:54:27;42.93;;;20.63;;
19599;SDS011;9947;57.722;12.012;2022-08-19T03:56:54;32.77;;;16.90;;
19599;SDS011;9947;57.722;12.012;2022-08-19T03:59:23;41.10;;;18.37;;
19599;SDS011;9947;57.722;12.012;2022-08-19T04:01:51;44.20;;;19.50;;
19599;SDS011;9947;57.722;12.012;2022-08-19T04:04:20;36.07;;;18.30;;
19599;SDS011;9947;57.722;12.012;2022-08-19T04:06:47;35.47;;;17.90;;
19599;SDS011;9947;57.722;12.012;2022-08-19T04:09:15;41.60;;;20.83;;
19599;SDS011;9947;57.722;12.012;2022-08-19T04:11:44;38.57;;;19.20;;
19599;SDS011;9947;57.722;12.012;2022-08-19T04:14:14;35.20;;;18.17;;
19599;SDS011;9947;57.722;12.012;2022-08-19T04:16:43;35.73;;;19.20;;
19599;SDS011;9947;57.722;12.012;2022-08-19T04:19:11;38.27;;;18.07;;
19599;SDS011;9947;57.722;12.012;2022-08-19T04:21:39;41.50;;;19.57;;
19599;SDS011;9947;57.722;12.012;2022-08-19T04:24:06;39.73;;;19.20;;
19599;SDS011;9947;57.722;12.012;2022-08-19T04:26:33;42.57;;;21.30;;
19599;SDS011;9947;57.722;12.012;2022-08-19T04:29:05;42.47;;;20.60;;
19599;SDS011;9947;57.722;12.012;2022-08-19T04:31:33;41.63;;;21.13;;
19599;SDS011;9947;57.722;12.012;2022-08-19T04:34:01;46.80;;;21.47;;
19599;SDS011;9947;57.722;12.012;2022-08-19T04:36:30;48.73;;;23.73;;
19599;SDS011;9947;57.722;12.012;2022-08-19T04:38:59;52.00;;;22.40;;
19599;SDS011;9947;57.722;12.012;2022-08-19T04:41:27;46.70;;;21.47;;
19599;SDS011;9947;57.722;12.012;2022-08-19T04:44:13;50.43;;;22.30;;
19599;SDS011;9947;57.722;12.012;2022-08-19T04:46:43;52.30;;;22.77;;
19599;SDS011;9947;57.722;12.012;2022-08-19T04:49:12;51.87;;;23.00;;
19599;SDS011;9947;57.722;12.012;2022-08-19T04:51:39;50.13;;;23.87;;
19599;SDS011;9947;57.722;12.012;2022-08-19T04:54:07;42.57;;;21.57;;
19599;SDS011;9947;57.722;12.012;2022-08-19T04:56:34;39.00;;;20.80;;
19599;SDS011;9947;57.722;12.012;2022-08-19T04:59:01;35.17;;;17.73;;
19599;SDS011;9947;57.722;12.012;2022-08-19T05:01:31;38.20;;;18.73;;
19599;SDS011;9947;57.722;12.012;2022-08-19T05:04:01;34.13;;;16.67;;
19599;SDS011;9947;57.722;12.012;2022-08-19T05:06:30;39.33;;;17.97;;
19599;SDS011;9947;57.722;12.012;2022-08-19T05:08:59;38.30;;;18.23;;
19599;SDS011;9947;57.722;12.012;2022-08-19T05:11:27;36.13;;;18.10;;
19599;SDS011;9947;57.722;12.012;2022-08-19T05:13:55;36.50;;;18.37;;
19599;SDS011;9947;57.722;12.012;2022-08-19T05:16:23;35.13;;;18.03;;
19599;SDS011;9947;57.722;12.012;2022-08-19T05:18:52;33.03;;;16.40;;
19599;SDS011;9947;57.722;12.012;2022-08-19T05:21:36;30.27;;;15.10;;
19599;SDS011;9947;57.722;12.012;2022-08-19T05:24:31;26.70;;;14.80;;
19599;SDS011;9947;57.722;12.012;2022-08-19T05:26:59;29.70;;;16.67;;
19599;SDS011;9947;57.722;12.012;2022-08-19T05:29:28;34.97;;;17.63;;
19599;SDS011;9947;57.722;12.012;2022-08-19T05:31:56;33.30;;;17.57;;
19599;SDS011;9947;57.722;12.012;2022-08-19T05:34:25;31.20;;;16.83;;
19599;SDS011;9947;57.722;12.012;2022-08-19T05:36:53;30.13;;;15.87;;
19599;SDS011;9947;57.722;12.012;2022-08-19T05:39:23;27.80;;;15.83;;
19599;SDS011;9947;57.722;12.012;2022-08-19T05:41:51;30.13;;;15.57;;
19599;SDS011;9947;57.722;12.012;2022-08-19T05:44:24;23.63;;;14.17;;
19599;SDS011;9947;57.722;12.012;2022-08-19T05:46:52;27.67;;;15.77;;
19599;SDS011;9947;57.722;12.012;2022-08-19T05:49:20;21.97;;;13.57;;
19599;SDS011;9947;57.722;12.012;2022-08-19T05:51:49;19.90;;;13.03;;
19599;SDS011;9947;57.722;12.012;2022-08-19T05:54:16;19.07;;;12.23;;
19599;SDS011;9947;57.722;12.012;2022-08-19T05:56:44;22.20;;;12.73;;
19599;SDS011;9947;57.722;12.012;2022-08-19T05:59:13;20.97;;;13.00;;
19599;SDS011;9947;57.722;12.012;2022-08-19T06:01:41;21.87;;;13.07;;
19599;SDS011;9947;57.722;12.012;2022-08-19T06:04:11;22.63;;;12.60;;
19599;SDS011;9947;57.722;12.012;2022-08-19T06:06:39;21.87;;;13.63;;
19599;SDS011;9947;57.722;12.012;2022-08-19T06:09:08;21.67;;;12.27;;
19599;SDS011;9947;57.722;12.012;2022-08-19T06:11:37;23.03;;;13.63;;
19599;SDS011;9947;57.722;12.012;2022-08-19T06:14:07;17.90;;;12.20;;
19599;SDS011;9947;57.722;12.012;2022-08-19T06:16:36;19.93;;;12.37;;
19599;SDS011;9947;57.722;12.012;2022-08-19T06:19:04;19.80;;;11.47;;
19599;SDS011;9947;57.722;12.012;2022-08-19T06:21:33;19.43;;;13.03;;
19599;SDS011;9947;57.722;12.012;2022-08-19T06:24:02;18.43;;;11.80;;
19599;SDS011;9947;57.722;12.012;2022-08-19T06:26:31;16.77;;;11.27;;
19599;SDS011;9947;57.722;12.012;2022-08-19T06:29:00;19.50;;;10.77;;
19599;SDS011;9947;57.722;12.012;2022-08-19T06:31:28;17.10;;;10.30;;
19599;SDS011;9947;57.722;12.012;2022-08-19T06:33:59;12.63;;;9.90;;
19599;SDS011;9947;57.722;12.012;2022-08-19T06:36:27;10.90;;;8.77;;
19599;SDS011;9947;57.722;12.012;2022-08-19T06:38:57;12.23;;;9.40;;
19599;SDS011;9947;57.722;12.012;2022-08-19T06:41:24;12.20;;;9.23;;
19599;SDS011;9947;57.722;12.012;2022-08-19T06:43:52;11.63;;;9.63;;
19599;SDS011;9947;57.722;12.012;2022-08-19T06:46:20;12.30;;;9.00;;
19599;SDS011;9947;57.722;12.012;2022-08-19T06:48:47;11.93;;;8.77;;
19599;SDS011;9947;57.722;12.012;2022-08-19T06:51:15;11.80;;;9.50;;
19599;SDS011;9947;57.722;12.012;2022-08-19T06:53:44;11.53;;;8.40;;
19599;SDS011;9947;57.722;12.012;2022-08-19T06:56:12;11.77;;;8.80;;
19599;SDS011;9947;57.722;12.012;2022-08-19T06:58:39;12.00;;;9.20;;
19599;SDS011;9947;57.722;12.012;2022-08-19T07:01:08;10.40;;;8.43;;
19599;SDS011;9947;57.722;12.012;2022-08-19T07:03:35;13.30;;;9.20;;
19599;SDS011;9947;57.722;12.012;2022-08-19T07:06:04;12.10;;;9.00;;
19599;SDS011;9947;57.722;12.012;2022-08-19T07:08:32;13.17;;;9.90;;
19599;SDS011;9947;57.722;12.012;2022-08-19T07:11:01;13.97;;;9.80;;
19599;SDS011;9947;57.722;12.012;2022-08-19T07:13:28;12.60;;;10.13;;
19599;SDS011;9947;57.722;12.012;2022-08-19T07:15:57;10.40;;;8.87;;
19599;SDS011;9947;57.722;12.012;2022-08-19T07:18:27;14.63;;;9.80;;
19599;SDS011;9947;57.722;12.012;2022-08-19T07:21:01;11.30;;;9.23;;
19599;SDS011;9947;57.722;12.012;2022-08-19T07:23:29;11.43;;;9.10;;
19599;SDS011;9947;57.722;12.012;2022-08-19T07:25:56;11.43;;;9.63;;
19599;SDS011;9947;57.722;12.012;2022-08-19T07:28:22;10.70;;;8.80;;
19599;SDS011;9947;57.722;12.012;2022-08-19T07:30:49;10.52;;;8.98;;
19599;SDS011;9947;57.722;12.012;2022-08-19T07:33:16;10.30;;;8.82;;
19599;SDS011;9947;57.722;12.012;2022-08-19T07:35:45;12.80;;;10.10;;
19599;SDS011;9947;57.722;12.012;2022-08-19T07:38:12;14.05;;;9.75;;
19599;SDS011;9947;57.722;12.012;2022-08-19T07:40:39;12.10;;;9.30;;
19599;SDS011;9947;57.722;12.012;2022-08-19T07:43:08;13.75;;;10.05;;
19599;SDS011;9947;57.722;12.012;2022-08-19T07:45:35;14.98;;;11.77;;
19599;SDS011;9947;57.722;12.012;2022-08-19T07:48:02;12.48;;;10.73;;
19599;SDS011;9947;57.722;12.012;2022-08-19T07:50:29;14.70;;;11.93;;
19599;SDS011;9947;57.722;12.012;2022-08-19T07:52:58;14.32;;;11.25;;
19599;SDS011;9947;57.722;12.012;2022-08-19T07:55:25;17.10;;;12.15;;
19599;SDS011;9947;57.722;12.012;2022-08-19T07:57:52;12.23;;;10.43;;
19599;SDS011;9947;57.722;12.012;2022-08-19T08:00:19;13.45;;;10.75;;
19599;SDS011;9947;57.722;12.012;2022-08-19T08:02:46;15.18;;;10.77;;
19599;SDS011;9947;57.722;12.012;2022-08-19T08:05:12;11.57;;;10.00;;
19599;SDS011;9947;57.722;12.012;2022-08-19T08:07:53;14.50;;;10.93;;
19599;SDS011;9947;57.722;12.012;2022-08-19T08:10:39;13.10;;;11.18;;
19599;SDS011;9947;57.722;12.012;2022-08-19T08:13:06;12.25;;;10.52;;
19599;SDS011;9947;57.722;12.012;2022-08-19T08:15:33;12.93;;;11.40;;
19599;SDS011;9947;57.722;12.012;2022-08-19T08:18:00;11.70;;;10.13;;
19599;SDS011;9947;57.722;12.012;2022-08-19T08:20:27;10.35;;;9.23;;
19599;SDS011;9947;57.722;12.012;2022-08-19T08:22:54;15.43;;;10.40;;
19599;SDS011;9947;57.722;12.012;2022-08-19T08:25:40;12.55;;;10.63;;
19599;SDS011;9947;57.722;12.012;2022-08-19T08:28:06;11.32;;;9.27;;
19599;SDS011;9947;57.722;12.012;2022-08-19T08:30:34;12.70;;;10.27;;
19599;SDS011;9947;57.722;12.012;2022-08-19T08:33:02;14.50;;;11.13;;
19599;SDS011;9947;57.722;12.012;2022-08-19T08:35:30;13.93;;;10.65;;
19599;SDS011;9947;57.722;12.012;2022-08-19T08:37:58;13.05;;;9.77;;
19599;SDS011;9947;57.722;12.012;2022-08-19T08:40:27;11.50;;;9.93;;
19599;SDS011;9947;57.722;12.012;2022-08-19T08:42:57;15.88;;;12.15;;
19599;SDS011;9947;57.722;12.012;2022-08-19T08:45:29;14.82;;;11.30;;
19599;SDS011;9947;57.722;12.012;2022-08-19T08:48:01;12.63;;;10.18;;
19599;SDS011;9947;57.722;12.012;2022-08-19T08:50:37;15.95;;;12.15;;
19599;SDS011;9947;57.722;12.012;2022-08-19T08:53:09;11.85;;;10.65;;
19599;SDS011;9947;57.722;12.012;2022-08-19T08:55:36;14.48;;;12.40;;
19599;SDS011;9947;57.722;12.012;2022-08-19T08:58:09;13.60;;;11.45;;
19599;SDS011;9947;57.722;12.012;2022-08-19T09:00:41;16.13;;;11.65;;
19599;SDS011;9947;57.722;12.012;2022-08-19T09:03:14;14.20;;;11.07;;
19599;SDS011;9947;57.722;12.012;2022-08-19T09:05:47;14.05;;;11.10;;
19599;SDS011;9947;57.722;12.012;2022-08-19T09:08:25;13.68;;;11.07;;
19599;SDS011;9947;57.722;12.012;2022-08-19T09:11:04;14.13;;;10.93;;
19599;SDS011;9947;57.722;12.012;2022-08-19T09:13:35;15.57;;;10.45;;
19599;SDS011;9947;57.722;12.012;2022-08-19T09:16:11;12.60;;;10.00;;
19599;SDS011;9947;57.722;12.012;2022-08-19T09:18:46;13.40;;;10.45;;
19599;SDS011;9947;57.722;12.012;2022-08-19T09:21:18;13.07;;;9.95;;
19599;SDS011;9947;57.722;12.012;2022-08-19T09:23:47;12.82;;;10.38;;
19599;SDS011;9947;57.722;12.012;2022-08-19T09:26:15;11.48;;;9.07;;
19599;SDS011;9947;57.722;12.012;2022-08-19T09:28:47;12.45;;;10.15;;
19599;SDS011;9947;57.722;12.012;2022-08-19T09:31:15;14.45;;;10.23;;
19599;SDS011;9947;57.722;12.012;2022-08-19T09:33:46;11.77;;;10.48;;
19599;SDS011;9947;57.722;12.012;2022-08-19T09:36:15;12.00;;;10.02;;
19599;SDS011;9947;57.722;12.012;2022-08-19T09:38:43;12.45;;;9.63;;
19599;SDS011;9947;57.722;12.012;2022-08-19T09:56:43;10.73;;;8.45;;
19599;SDS011;9947;57.722;12.012;2022-08-19T09:59:10;8.90;;;8.00;;
19599;SDS011;9947;57.722;12.012;2022-08-19T10:01:37;9.02;;;7.93;;
19599;SDS011;9947;57.722;12.012;2022-08-19T10:04:04;10.18;;;8.48;;
19599;SDS011;9947;57.722;12.012;2022-08-19T10:06:33;13.05;;;8.77;;
19599;SDS011;9947;57.722;12.012;2022-08-19T10:09:03;19.77;;;11.40;;
19599;SDS011;9947;57.722;12.012;2022-08-19T10:11:31;10.73;;;8.48;;
19599;SDS011;9947;57.722;12.012;2022-08-19T10:14:00;13.48;;;9.65;;
19599;SDS011;9947;57.722;12.012;2022-08-19T10:16:27;9.98;;;8.70;;
19599;SDS011;9947;57.722;12.012;2022-08-19T10:18:54;13.38;;;9.30;;
19599;SDS011;9947;57.722;12.012;2022-08-19T10:21:22;10.50;;;8.80;;
19599;SDS011;9947;57.722;12.012;2022-08-19T10:23:51;13.55;;;8.52;;
19599;SDS011;9947;57.722;12.012;2022-08-19T10:26:22;11.35;;;8.43;;
19599;SDS011;9947;57.722;12.012;2022-08-19T10:28:50;12.18;;;8.32;;
19599;SDS011;9947;57.722;12.012;2022-08-19T10:31:19;10.75;;;9.23;;
19599;SDS011;9947;57.722;12.012;2022-08-19T10:33:48;12.05;;;8.98;;
19599;SDS011;9947;57.722;12.012;2022-08-19T10:36:16;12.70;;;9.43;;
19599;SDS011;9947;57.722;12.012;2022-08-19T10:38:50;13.15;;;8.65;;
19599;SDS011;9947;57.722;12.012;2022-08-19T10:41:19;13.20;;;8.82;;
19599;SDS011;9947;57.722;12.012;2022-08-19T10:43:50;11.40;;;9.05;;
19599;SDS011;9947;57.722;12.012;2022-08-19T10:46:18;10.90;;;9.02;;
19599;SDS011;9947;57.722;12.012;2022-08-19T10:48:45;10.48;;;8.40;;
19599;SDS011;9947;57.722;12.012;2022-08-19T10:51:12;11.70;;;8.25;;
19599;SDS011;9947;57.722;12.012;2022-08-19T10:53:57;11.52;;;8.90;;
19599;SDS011;9947;57.722;12.012;2022-08-19T10:56:25;14.55;;;8.90;;
19599;SDS011;9947;57.722;12.012;2022-08-19T10:59:09;12.40;;;8.70;;
19599;SDS011;9947;57.722;12.012;2022-08-19T11:01:41;11.60;;;8.52;;
19599;SDS011;9947;57.722;12.012;2022-08-19T11:04:09;10.82;;;8.70;;
19599;SDS011;9947;57.722;12.012;2022-08-19T11:06:38;9.98;;;8.20;;
19599;SDS011;9947;57.722;12.012;2022-08-19T11:09:06;13.40;;;8.75;;
19599;SDS011;9947;57.722;12.012;2022-08-19T11:11:34;10.77;;;8.32;;
19599;SDS011;9947;57.722;12.012;2022-08-19T11:14:04;10.82;;;7.35;;
19599;SDS011;9947;57.722;12.012;2022-08-19T11:16:31;8.88;;;7.38;;
19599;SDS011;9947;57.722;12.012;2022-08-19T11:18:59;11.02;;;7.28;;
19599;SDS011;9947;57.722;12.012;2022-08-19T11:21:28;9.88;;;7.75;;
19599;SDS011;9947;57.722;12.012;2022-08-19T11:23:58;14.20;;;7.75;;
19599;SDS011;9947;57.722;12.012;2022-08-19T11:26:27;12.63;;;7.60;;
19599;SDS011;9947;57.722;12.012;2022-08-19T11:28:58;15.20;;;8.30;;
19599;SDS011;9947;57.722;12.012;2022-08-19T11:31:26;20.13;;;10.40;;
19599;SDS011;9947;57.722;12.012;2022-08-19T11:33:56;12.45;;;8.38;;
19599;SDS011;9947;57.722;12.012;2022-08-19T11:36:26;11.32;;;8.02;;
19599;SDS011;9947;57.722;12.012;2022-08-19T11:38:54;9.75;;;7.78;;
19599;SDS011;9947;57.722;12.012;2022-08-19T11:41:21;12.25;;;7.93;;
19599;SDS011;9947;57.722;12.012;2022-08-19T11:43:49;13.90;;;9.02;;
19599;SDS011;9947;57.722;12.012;2022-08-19T11:46:18;12.18;;;9.05;;
19599;SDS011;9947;57.722;12.012;2022-08-19T11:48:44;12.82;;;8.98;;
19599;SDS011;9947;57.722;12.012;2022-08-19T11:51:13;14.98;;;9.43;;
19599;SDS011;9947;57.722;12.012;2022-08-19T11:53:43;11.93;;;9.52;;
19599;SDS011;9947;57.722;12.012;2022-08-19T11:56:10;10.75;;;8.57;;
19599;SDS011;9947;57.722;12.012;2022-08-19T11:58:38;11.13;;;8.70;;
19599;SDS011;9947;57.722;12.012;2022-08-19T12:01:07;13.15;;;9.55;;
19599;SDS011;9947;57.722;12.012;2022-08-19T12:03:34;10.88;;;9.00;;
19599;SDS011;9947;57.722;12.012;2022-08-19T12:06:03;10.52;;;8.38;;
19599;SDS011;9947;57.722;12.012;2022-08-19T12:08:30;11.30;;;8.55;;
19599;SDS011;9947;57.722;12.012;2022-08-19T12:10:58;10.18;;;9.05;;
19599;SDS011;9947;57.722;12.012;2022-08-19T12:13:27;11.15;;;8.77;;
19599;SDS011;9947;57.722;12.012;2022-08-19T12:15:53;10.20;;;8.30;;
19599;SDS011;9947;57.722;12.012;2022-08-19T12:18:20;10.85;;;8.48;;
19599;SDS011;9947;57.722;12.012;2022-08-19T12:20:47;12.43;;;8.85;;
19599;SDS011;9947;57.722;12.012;2022-08-19T12:23:17;13.35;;;9.38;;
19599;SDS011;9947;57.722;12.012;2022-08-19T12:25:45;11.73;;;8.43;;
19599;SDS011;9947;57.722;12.012;2022-08-19T12:28:21;11.27;;;8.70;;
19599;SDS011;9947;57.722;12.012;2022-08-19T12:30:49;12.50;;;8.70;;
19599;SDS011;9947;57.722;12.012;2022-08-19T12:33:17;11.23;;;9.00;;
19599;SDS011;9947;57.722;12.012;2022-08-19T12:35:44;12.88;;;9.63;;
19599;SDS011;9947;57.722;12.012;2022-08-19T12:38:11;12.70;;;11.32;;
19599;SDS011;9947;57.722;12.012;2022-08-19T12:40:38;15.40;;;9.63;;
19599;SDS011;9947;57.722;12.012;2022-08-19T12:43:05;12.07;;;8.82;;
19599;SDS011;9947;57.722;12.012;2022-08-19T12:45:34;11.63;;;8.85;;
19599;SDS011;9947;57.722;12.012;2022-08-19T12:48:01;12.38;;;9.43;;
19599;SDS011;9947;57.722;12.012;2022-08-19T12:50:28;12.70;;;9.00;;
19599;SDS011;9947;57.722;12.012;2022-08-19T12:52:55;11.48;;;10.10;;
19599;SDS011;9947;57.722;12.012;2022-08-19T12:55:23;11.57;;;8.77;;
19599;SDS011;9947;57.722;12.012;2022-08-19T12:57:53;11.73;;;8.45;;
19599;SDS011;9947;57.722;12.012;2022-08-19T13:00:20;11.00;;;8.68;;
19599;SDS011;9947;57.722;12.012;2022-08-19T13:02:50;13.88;;;7.25;;
19599;SDS011;9947;57.722;12.012;2022-08-19T13:05:19;20.95;;;9.95;;
19599;SDS011;9947;57.722;12.012;2022-08-19T13:07:49;12.57;;;7.65;;
19599;SDS011;9947;57.722;12.012;2022-08-19T13:10:18;13.95;;;7.78;;
19599;SDS011;9947;57.722;12.012;2022-08-19T13:12:48;19.77;;;10.50;;
19599;SDS011;9947;57.722;12.012;2022-08-19T13:15:17;21.67;;;11.25;;
19599;SDS011;9947;57.722;12.012;2022-08-19T13:17:46;9.85;;;5.50;;
19599;SDS011;9947;57.722;12.012;2022-08-19T13:20:16;8.50;;;5.47;;
19599;SDS011;9947;57.722;12.012;2022-08-19T13:22:45;7.60;;;4.90;;
19599;SDS011;9947;57.722;12.012;2022-08-19T13:25:12;8.32;;;4.70;;
19599;SDS011;9947;57.722;12.012;2022-08-19T13:27:41;15.57;;;4.97;;
19599;SDS011;9947;57.722;12.012;2022-08-19T13:30:09;4.75;;;4.28;;
19599;SDS011;9947;57.722;12.012;2022-08-19T13:32:55;6.28;;;4.15;;
19599;SDS011;9947;57.722;12.012;2022-08-19T13:35:41;8.38;;;4.25;;
19599;SDS011;9947;57.722;12.012;2022-08-19T13:38:11;7.65;;;4.53;;
19599;SDS011;9947;57.722;12.012;2022-08-19T13:40:39;5.93;;;3.70;;
19599;SDS011;9947;57.722;12.012;2022-08-19T13:43:07;6.30;;;4.00;;
19599;SDS011;9947;57.722;12.012;2022-08-19T13:45:35;5.65;;;3.75;;
19599;SDS011;9947;57.722;12.012;2022-08-19T13:48:03;4.35;;;3.60;;
19599;SDS011;9947;57.722;12.012;2022-08-19T13:50:34;5.35;;;3.47;;
19599;SDS011;9947;57.722;12.012;2022-08-19T13:53:05;6.00;;;3.60;;
19599;SDS011;9947;57.722;12.012;2022-08-19T13:55:32;6.60;;;3.60;;
19599;SDS011;9947;57.722;12.012;2022-08-19T13:57:59;5.28;;;3.58;;
19599;SDS011;9947;57.722;12.012;2022-08-19T14:00:28;3.85;;;3.15;;
19599;SDS011;9947;57.722;12.012;2022-08-19T14:02:57;4.70;;;3.33;;
19599;SDS011;9947;57.722;12.012;2022-08-19T14:05:24;5.43;;;3.55;;
19599;SDS011;9947;57.722;12.012;2022-08-19T14:07:52;5.22;;;3.63;;
19599;SDS011;9947;57.722;12.012;2022-08-19T14:10:21;5.43;;;3.50;;
19599;SDS011;9947;57.722;12.012;2022-08-19T14:12:49;5.43;;;3.50;;
19599;SDS011;9947;57.722;12.012;2022-08-19T14:15:18;4.70;;;3.13;;
19599;SDS011;9947;57.722;12.012;2022-08-19T14:17:45;7.13;;;2.78;;
19599;SDS011;9947;57.722;12.012;2022-08-19T14:20:14;6.28;;;3.38;;
19599;SDS011;9947;57.722;12.012;2022-08-19T14:22:41;5.13;;;3.05;;
19599;SDS011;9947;57.722;12.012;2022-08-19T14:25:11;5.32;;;3.00;;
19599;SDS011;9947;57.722;12.012;2022-08-19T14:27:41;4.93;;;2.90;;
19599;SDS011;9947;57.722;12.012;2022-08-19T14:30:09;4.53;;;3.17;;
19599;SDS011;9947;57.722;12.012;2022-08-19T14:32:38;3.80;;;2.80;;
19599;SDS011;9947;57.722;12.012;2022-08-19T14:35:08;5.03;;;2.90;;
19599;SDS011;9947;57.722;12.012;2022-08-19T14:37:35;4.90;;;2.88;;
19599;SDS011;9947;57.722;12.012;2022-08-19T14:40:02;4.88;;;2.95;;
19599;SDS011;9947;57.722;12.012;2022-08-19T14:42:29;5.18;;;2.67;;
19599;SDS011;9947;57.722;12.012;2022-08-19T14:44:58;6.63;;;2.88;;
19599;SDS011;9947;57.722;12.012;2022-08-19T14:47:25;5.28;;;2.70;;
19599;SDS011;9947;57.722;12.012;2022-08-19T14:49:52;4.35;;;2.60;;
19599;SDS011;9947;57.722;12.012;2022-08-19T14:52:19;5.28;;;2.60;;
19599;SDS011;9947;57.722;12.012;2022-08-19T14:54:46;5.75;;;2.65;;